Time;durP1;ratioP1;P1;durP2;ratioP2;P2;SDS_P1;SDS_P2;PMS_P1;PMS_P2;Temp;Humidity;BMP_temperature;BMP_pressure;BME280_temperature;BME280_humidity;BME280_pressure;Samples;Min_cycle;Max_cycle;Signal;HPM_P1;HPM_P2
2022/10/10 00:01:05;;;;;;;23.40;9.75;;;;;;;14.91;56.18;100398.91;3134973;28;20045;-63
2022/10/10 00:02:37;;;;;;;23.00;10.57;;;;;;;14.86;56.78;100393.06;3136020;28;20401;-63
2022/10/10 00:04:08;;;;;;;22.88;10.20;;;;;;;14.84;56.61;100400.16;3136135;28;20080;-63
2022/10/10 00:05:40;;;;;;;23.08;10.40;;;;;;;14.81;56.62;100400.31;3136198;28;20048;-63
2022/10/10 00:07:12;;;;;;;17.33;9.20;;;;;;;14.78;56.93;100403.09;3123882;28;20057;-64
2022/10/10 00:08:45;;;;;;;22.27;10.68;;;;;;;14.76;56.84;100408.44;3134942;28;20401;-63
2022/10/10 00:10:16;;;;;;;22.08;10.23;;;;;;;14.72;57.30;100408.66;3136917;28;20442;-64
2022/10/10 00:11:48;;;;;;;21.50;10.75;;;;;;;14.68;56.95;100409.78;3136045;28;20080;-64
2022/10/10 00:13:19;;;;;;;22.63;10.80;;;;;;;14.61;57.56;100408.38;3135329;28;20563;-64
2022/10/10 00:14:51;;;;;;;24.00;10.55;;;;;;;14.60;57.54;100406.69;3136161;28;20143;-64
2022/10/10 00:16:25;;;;;;;20.20;10.93;;;;;;;14.59;57.32;100405.84;3136458;28;20064;-64
2022/10/10 00:17:56;;;;;;;19.55;10.45;;;;;;;14.59;57.47;100411.09;3135743;28;20633;-64
2022/10/10 00:19:28;;;;;;;20.40;10.57;;;;;;;14.61;57.36;100413.63;3135600;28;20052;-64
2022/10/10 00:21:00;;;;;;;20.80;10.30;;;;;;;14.61;57.37;100414.50;3136539;28;20052;-63
2022/10/10 00:22:32;;;;;;;20.17;10.20;;;;;;;14.60;57.36;100410.16;3135732;28;20586;-63
2022/10/10 00:24:05;;;;;;;23.20;10.23;;;;;;;14.59;57.38;100416.34;3136409;28;20079;-64
2022/10/10 00:25:37;;;;;;;25.90;11.90;;;;;;;14.59;57.56;100416.34;3135785;28;20525;-64
2022/10/10 00:27:09;;;;;;;26.70;11.95;;;;;;;14.57;57.47;100424.25;3136536;28;20045;-63
2022/10/10 00:28:41;;;;;;;23.05;10.95;;;;;;;14.56;57.54;100429.59;3140000;28;20106;-64
2022/10/10 00:30:12;;;;;;;26.73;11.02;;;;;;;14.55;57.68;100427.88;3140745;28;20060;-64
2022/10/10 00:31:45;;;;;;;21.80;10.60;;;;;;;14.55;57.83;100427.88;3140292;28;20109;-64
2022/10/10 00:33:16;;;;;;;18.13;10.95;;;;;;;14.54;57.84;100428.81;3140202;28;20048;-64
2022/10/10 00:34:48;;;;;;;22.00;11.27;;;;;;;14.54;57.80;100431.44;3139926;28;20063;-64
2022/10/10 00:36:20;;;;;;;21.77;11.30;;;;;;;14.53;57.91;100432.38;3140224;28;20682;-64
2022/10/10 00:37:51;;;;;;;24.60;11.93;;;;;;;14.51;57.79;100434.19;3139829;28;20095;-65
2022/10/10 00:39:23;;;;;;;20.33;10.80;;;;;;;14.50;57.93;100432.50;3140242;28;20084;-64
2022/10/10 00:40:56;;;;;;;20.60;10.15;;;;;;;14.49;58.14;100433.41;3140455;28;20086;-65
2022/10/10 00:42:28;;;;;;;;;;;;;;;14.45;57.71;100430.09;3139633;28;20110;-65
2022/10/10 00:44:05;;;;;;;28.20;10.35;;;;;;;14.44;57.77;100435.44;3140079;28;19928;-65
2022/10/10 00:45:40;;;;;;;26.55;11.52;;;;;;;14.43;58.04;100429.31;3139666;28;20412;-65
2022/10/10 00:47:13;;;;;;;23.00;10.77;;;;;;;14.43;57.87;100426.72;3140089;28;20052;-65
2022/10/10 00:48:46;;;;;;;28.95;12.15;;;;;;;14.41;57.75;100432.97;3140055;28;20501;-65
2022/10/10 00:50:19;;;;;;;27.52;11.43;;;;;;;14.42;58.23;100432.03;3140141;28;20056;-65
2022/10/10 00:51:55;;;;;;;24.00;12.02;;;;;;;14.43;58.22;100437.19;3139931;28;20060;-64
2022/10/10 00:53:31;;;;;;;23.23;10.50;;;;;;;14.42;57.89;100439.91;3140112;28;20056;-65
2022/10/10 00:55:02;;;;;;;21.73;11.10;;;;;;;14.43;58.18;100446.84;3140156;28;20068;-64
2022/10/10 00:56:40;;;;;;;22.55;10.93;;;;;;;14.40;58.06;100429.50;3140138;28;20102;-65
2022/10/10 00:58:12;;;;;;;22.35;11.45;;;;;;;14.43;57.82;100428.50;3140151;28;20048;-65
2022/10/10 00:59:46;;;;;;;24.25;10.73;;;;;;;14.42;58.01;100432.88;3139946;28;20917;-64
2022/10/10 01:01:18;;;;;;;24.30;10.57;;;;;;;14.41;58.16;100425.13;3139816;28;20653;-64
2022/10/10 01:02:51;;;;;;;24.13;11.50;;;;;;;14.39;58.27;100426.97;3139836;28;20151;-64
2022/10/10 01:04:31;;;;;;;;;;;;;;;14.34;58.21;100428.06;3140320;28;20872;-64
2022/10/10 01:06:02;;;;;;;17.80;10.63;;;;;;;14.32;58.19;100432.50;3139193;28;20018;-64
2022/10/10 01:07:35;;;;;;;20.05;10.00;;;;;;;14.32;58.29;100431.66;3139606;28;20138;-64
2022/10/10 01:09:07;;;;;;;33.88;11.27;;;;;;;14.30;58.18;100436.97;3140022;28;20053;-64
2022/10/10 01:10:48;;;;;;;26.05;12.02;;;;;;;14.29;58.31;100440.53;3139956;28;20052;-64
2022/10/10 01:12:26;;;;;;;18.48;10.45;;;;;;;14.28;58.76;100432.72;3139501;28;20060;-64
2022/10/10 01:14:07;;;;;;;20.85;10.95;;;;;;;14.27;58.56;100431.03;3131846;28;20049;-64
2022/10/10 01:15:50;;;;;;;25.00;10.73;;;;;;;14.25;58.90;100430.28;3139957;28;20051;-64
2022/10/10 01:17:29;;;;;;;16.00;10.30;;;;;;;14.22;58.55;100428.66;3139767;28;20143;-64
2022/10/10 01:19:12;;;;;;;19.65;10.60;;;;;;;14.21;58.51;100432.19;3139221;28;20068;-64
2022/10/10 01:21:03;;;;;;;21.88;10.07;;;;;;;14.20;58.78;100434.91;3139781;28;20408;-63
2022/10/10 01:22:43;;;;;;;18.58;9.90;;;;;;;14.21;58.84;100439.22;3136401;28;20053;-64
2022/10/10 01:24:42;;;;;;;26.33;11.13;;;;;;;14.20;58.80;100440.16;3139822;28;20052;-64
2022/10/10 01:26:34;;;;;;;24.77;9.95;;;;;;;14.21;58.55;100447.06;3139594;28;20446;-64
2022/10/10 01:28:19;;;;;;;20.10;9.75;;;;;;;14.20;58.60;100445.41;3139893;28;20095;-64
2022/10/10 01:29:54;;;;;;;19.92;10.65;;;;;;;14.21;58.73;100449.69;3136035;28;20535;-64
2022/10/10 01:31:25;;;;;;;26.30;10.35;;;;;;;14.21;58.97;100452.31;3139503;28;20052;-66
2022/10/10 01:33:05;;;;;;;24.52;10.63;;;;;;;14.21;59.07;100453.16;3139928;28;20052;-65
2022/10/10 01:34:45;;;;;;;20.75;10.35;;;;;;;14.15;59.00;100436.91;3139774;28;20574;-64
2022/10/10 01:36:22;;;;;;;23.40;10.18;;;;;;;14.20;58.74;100454.09;3139692;28;20101;-65
2022/10/10 01:38:05;;;;;;;22.25;10.00;;;;;;;14.19;59.04;100449.75;3139860;28;20056;-64
2022/10/10 01:39:45;;;;;;;24.17;10.75;;;;;;;14.19;59.27;100449.75;3139642;28;20048;-64
2022/10/10 01:41:22;;;;;;;17.10;9.60;;;;;;;14.19;59.20;100452.38;3139792;28;20053;-65
2022/10/10 01:42:55;;;;;;;22.65;10.57;;;;;;;14.14;59.34;100445.66;3136828;28;20121;-65
2022/10/10 01:44:29;;;;;;;18.52;10.57;;;;;;;14.18;59.32;100449.84;3139672;28;20815;-64
2022/10/10 01:46:09;;;;;;;;;;;;;;;14.14;59.40;100449.16;3140320;28;20161;-65
2022/10/10 01:47:40;;;;;;;22.02;11.82;;;;;;;14.13;59.32;100463.16;3139715;28;20467;-65
2022/10/10 01:49:12;;;;;;;20.42;11.27;;;;;;;14.13;59.35;100460.53;3139588;28;20222;-64
2022/10/10 01:50:59;;;;;;;26.63;11.38;;;;;;;14.14;59.08;100471.84;3139554;28;20135;-65
2022/10/10 01:52:43;;;;;;;23.17;10.73;;;;;;;14.11;59.07;100468.50;3139441;28;20068;-64
2022/10/10 01:54:30;;;;;;;22.27;11.45;;;;;;;14.10;59.32;100465.94;3139786;28;20055;-64
2022/10/10 01:56:10;;;;;;;24.83;11.20;;;;;;;14.08;59.25;100473.03;3139616;28;20068;-64
2022/10/10 01:57:50;;;;;;;27.45;11.60;;;;;;;14.06;59.11;100470.47;3139520;28;20071;-64
2022/10/10 01:59:39;;;;;;;24.35;12.40;;;;;;;14.03;58.98;100475.03;3139487;28;20496;-63
2022/10/10 02:01:17;;;;;;;28.85;11.98;;;;;;;13.93;59.23;100474.63;3139591;28;20618;-66
2022/10/10 02:02:57;;;;;;;25.63;11.93;;;;;;;13.91;59.10;100471.22;3139508;28;20113;-65
2022/10/10 02:04:35;;;;;;;23.25;12.52;;;;;;;13.84;59.36;100475.03;3139511;28;20105;-65
2022/10/10 02:06:14;;;;;;;28.73;12.00;;;;;;;13.80;59.51;100478.75;3139615;28;20106;-64
2022/10/10 02:07:51;;;;;;;21.65;11.85;;;;;;;13.73;59.44;100478.19;3139568;28;20051;-64
2022/10/10 02:09:29;;;;;;;21.58;11.23;;;;;;;13.70;59.64;100477.50;3139621;28;20053;-64
2022/10/10 02:11:03;;;;;;;26.67;12.05;;;;;;;13.64;59.77;100481.25;3139563;28;20897;-65
2022/10/10 02:12:36;;;;;;;27.02;13.13;;;;;;;13.61;59.52;100478.78;3139541;28;20056;-65
2022/10/10 02:14:14;;;;;;;23.13;12.32;;;;;;;13.53;60.17;100479.13;3139425;28;20044;-64
2022/10/10 02:15:53;;;;;;;18.90;11.77;;;;;;;13.43;60.70;100480.47;3135515;28;20144;-65
2022/10/10 02:17:26;;;;;;;22.92;12.40;;;;;;;13.37;60.68;100494.69;3127148;28;20524;-64
2022/10/10 02:18:59;;;;;;;22.77;11.80;;;;;;;13.33;61.00;100487.03;3138362;28;20095;-65
2022/10/10 02:20:32;;;;;;;19.60;10.93;;;;;;;13.30;60.96;100485.41;3139480;28;20063;-64
2022/10/10 02:22:05;;;;;;;21.50;11.60;;;;;;;13.28;61.31;100481.16;3139476;28;20048;-65
2022/10/10 02:23:38;;;;;;;;;;;;;;;13.19;61.98;100477.16;3140175;28;20048;-65
2022/10/10 02:25:12;;;;;;;15.93;11.05;;;;;;;13.17;61.61;100476.41;3141821;28;19924;-63
2022/10/10 02:26:48;;;;;;;20.05;11.05;;;;;;;13.16;61.38;100472.06;3141196;28;20122;-64
2022/10/10 02:28:25;;;;;;;19.55;10.82;;;;;;;13.16;61.67;100488.63;3141659;28;20114;-66
2022/10/10 02:29:59;;;;;;;24.60;11.40;;;;;;;13.14;62.12;100485.22;3141827;28;20323;-65
2022/10/10 02:31:37;;;;;;;26.10;10.88;;;;;;;13.16;62.16;100490.38;3129164;28;20201;-64
2022/10/10 02:33:11;;;;;;;20.50;10.90;;;;;;;13.16;61.76;100474.69;3141643;28;20805;-64
2022/10/10 02:34:46;;;;;;;17.65;10.48;;;;;;;13.13;62.14;100473.09;3141183;28;20426;-64
2022/10/10 02:36:19;;;;;;;21.23;11.02;;;;;;;13.17;62.04;100477.25;3141544;28;20052;-64
2022/10/10 02:37:54;;;;;;;24.13;12.48;;;;;;;13.15;62.21;100478.22;3141534;28;20274;-64
2022/10/10 02:39:30;;;;;;;28.25;10.45;;;;;;;13.20;62.30;100479.72;3141370;28;20110;-64
2022/10/10 02:41:03;;;;;;;23.23;11.18;;;;;;;13.20;62.07;100481.50;3141518;28;20052;-64
2022/10/10 02:42:36;;;;;;;20.20;11.05;;;;;;;13.23;62.05;100483.13;3138659;28;20197;-64
2022/10/10 02:44:08;;;;;;;17.35;9.77;;;;;;;13.23;62.10;100483.97;3141603;28;20049;-64
2022/10/10 02:45:40;;;;;;;18.75;9.55;;;;;;;13.25;62.07;100487.41;3141688;28;20052;-64
2022/10/10 02:47:13;;;;;;;18.95;10.88;;;;;;;13.26;62.40;100489.09;3141366;28;20049;-64
2022/10/10 02:48:45;;;;;;;17.58;9.75;;;;;;;13.28;62.37;100489.88;3140929;28;20060;-64
2022/10/10 02:50:18;;;;;;;18.83;9.93;;;;;;;13.30;62.38;100495.88;3141420;28;20525;-64
2022/10/10 02:51:50;;;;;;;22.60;10.50;;;;;;;13.32;61.95;100493.19;3141273;28;20095;-65
2022/10/10 02:53:22;;;;;;;21.70;10.68;;;;;;;13.33;62.02;100500.97;3141338;28;20143;-65
2022/10/10 02:54:54;;;;;;;20.52;10.32;;;;;;;13.31;62.27;100497.59;3141424;28;20460;-64
2022/10/10 02:56:26;;;;;;;16.55;9.98;;;;;;;13.32;62.27;100499.28;3141423;28;20136;-65
2022/10/10 02:57:58;;;;;;;18.02;10.30;;;;;;;13.30;62.53;100501.09;3141358;28;20052;-65
2022/10/10 02:59:30;;;;;;;14.27;9.73;;;;;;;13.26;62.12;100491.72;3141099;28;20045;-65
2022/10/10 03:01:02;;;;;;;16.42;9.50;;;;;;;13.25;62.52;100492.63;3140224;28;20467;-66
2022/10/10 03:02:35;;;;;;;18.60;10.57;;;;;;;13.31;62.19;100501.94;3141275;28;20055;-64
2022/10/10 03:04:07;;;;;;;;;;;;;;;13.29;62.71;100503.81;3141679;28;20044;-64
2022/10/10 03:05:39;;;;;;;25.50;9.23;;;;;;;13.28;62.49;100502.97;3141066;28;20402;-64
2022/10/10 03:07:10;;;;;;;29.10;9.93;;;;;;;13.31;62.61;100501.94;3141179;28;20052;-66
2022/10/10 03:08:42;;;;;;;19.85;9.52;;;;;;;13.33;62.60;100507.97;3140065;28;20052;-66
2022/10/10 03:10:15;;;;;;;19.38;9.77;;;;;;;13.33;62.46;100502.72;3141010;28;20056;-65
2022/10/10 03:11:48;;;;;;;18.83;9.90;;;;;;;13.33;62.25;100514.03;3140792;28;20080;-66
2022/10/10 03:13:20;;;;;;;21.55;10.25;;;;;;;13.32;62.50;100508.91;3140547;28;20611;-65
2022/10/10 03:14:52;;;;;;;16.73;10.07;;;;;;;13.33;62.46;100515.81;3141035;28;20044;-64
2022/10/10 03:16:24;;;;;;;18.23;9.60;;;;;;;13.32;62.51;100507.13;3140796;28;20048;-65
2022/10/10 03:17:58;;;;;;;18.05;10.07;;;;;;;13.33;62.23;100508.81;3143138;28;20059;-64
2022/10/10 03:19:31;;;;;;;18.15;10.25;;;;;;;13.34;62.68;100507.91;3145744;28;20048;-64
2022/10/10 03:21:03;;;;;;;20.20;10.50;;;;;;;13.32;62.57;100509.72;3146209;28;20044;-64
2022/10/10 03:22:35;;;;;;;19.10;10.00;;;;;;;13.29;62.03;100507.25;3144569;28;20049;-63
2022/10/10 03:24:06;;;;;;;21.02;10.13;;;;;;;13.26;62.07;100509.16;3145506;28;20305;-64
2022/10/10 03:25:41;;;;;;;17.35;10.25;;;;;;;13.19;62.23;100513.78;3146293;28;20055;-64
2022/10/10 03:27:13;;;;;;;23.27;10.43;;;;;;;13.14;62.58;100515.75;3146331;28;20083;-64
2022/10/10 03:28:45;;;;;;;21.40;9.73;;;;;;;13.11;62.72;100515.91;3145765;28;20052;-64
2022/10/10 03:30:17;;;;;;;21.35;10.73;;;;;;;13.11;62.71;100513.28;3145854;28;20049;-64
2022/10/10 03:31:50;;;;;;;18.63;10.68;;;;;;;13.11;63.07;100516.75;3145974;28;20136;-64
2022/10/10 03:33:24;;;;;;;15.65;9.65;;;;;;;13.11;63.09;100516.75;3145578;28;20441;-64
2022/10/10 03:34:55;;;;;;;19.85;10.00;;;;;;;13.12;63.10;100518.44;3145627;28;20049;-63
2022/10/10 03:36:29;;;;;;;18.30;10.65;;;;;;;13.13;63.45;100509.69;3145667;28;20673;-64
2022/10/10 03:38:00;;;;;;;18.08;10.73;;;;;;;13.15;63.18;100510.44;3145955;28;20076;-63
2022/10/10 03:39:33;;;;;;;18.25;10.90;;;;;;;13.16;63.06;100508.69;3145776;28;20051;-64
2022/10/10 03:41:05;;;;;;;20.65;10.25;;;;;;;13.17;63.24;100519.09;3145784;28;20055;-64
2022/10/10 03:42:36;;;;;;;20.02;10.73;;;;;;;13.16;63.11;100512.16;3145249;28;20037;-64
2022/10/10 03:44:09;;;;;;;20.98;10.23;;;;;;;13.12;63.33;100513.19;3142793;28;20049;-63
2022/10/10 03:45:43;;;;;;;16.17;10.43;;;;;;;13.13;63.20;100514.91;3145728;28;20086;-64
2022/10/10 03:47:15;;;;;;;21.23;9.68;;;;;;;13.12;63.43;100514.97;3145176;28;20800;-64
2022/10/10 03:48:48;;;;;;;20.08;9.15;;;;;;;13.11;63.32;100515.91;3145007;28;20166;-64
2022/10/10 03:50:21;;;;;;;21.27;9.88;;;;;;;13.09;63.42;100517.72;3141067;28;20497;-64
2022/10/10 03:51:53;;;;;;;23.88;10.30;;;;;;;13.05;63.51;100518.78;3145672;28;20052;-64
2022/10/10 03:53:25;;;;;;;17.83;10.02;;;;;;;13.06;63.77;100515.25;3145771;28;20055;-64
2022/10/10 03:54:58;;;;;;;18.10;9.60;;;;;;;13.07;63.72;100514.31;3145642;28;20082;-64
2022/10/10 03:56:29;;;;;;;19.55;9.50;;;;;;;13.07;63.47;100520.38;3145862;28;20053;-64
2022/10/10 03:58:01;;;;;;;18.20;9.65;;;;;;;13.06;63.94;100516.09;3145794;28;20086;-64
2022/10/10 03:59:33;;;;;;;17.80;9.65;;;;;;;13.04;63.80;100512.69;3145644;28;20045;-65
2022/10/10 04:01:05;;;;;;;19.23;9.73;;;;;;;13.07;63.57;100517.78;3145817;28;20047;-64
2022/10/10 04:02:37;;;;;;;17.40;9.27;;;;;;;13.03;63.83;100518.84;3145761;28;20071;-64
2022/10/10 04:04:11;;;;;;;23.60;9.68;;;;;;;13.00;64.15;100518.97;3145349;28;20537;-64
2022/10/10 04:05:42;;;;;;;21.10;9.43;;;;;;;13.00;64.06;100515.50;3145626;28;20522;-64
2022/10/10 04:07:14;;;;;;;18.23;9.02;;;;;;;12.98;64.05;100521.66;3145914;28;20159;-64
2022/10/10 04:08:46;;;;;;;17.48;8.93;;;;;;;12.97;63.91;100521.72;3138452;28;20064;-64
2022/10/10 04:10:18;;;;;;;14.75;8.77;;;;;;;12.99;64.02;100522.50;3145759;28;20103;-64
2022/10/10 04:11:50;;;;;;;20.10;9.45;;;;;;;12.95;63.93;100527.03;3145469;28;20048;-64
2022/10/10 04:13:24;;;;;;;20.05;8.82;;;;;;;12.94;64.25;100525.31;3145618;28;20059;-64
2022/10/10 04:15:02;;;;;;;15.20;8.90;;;;;;;12.96;64.22;100528.72;3145039;28;20056;-64
2022/10/10 04:16:34;;;;;;;13.85;8.85;;;;;;;12.96;64.26;100530.50;3145243;28;20059;-64
2022/10/10 04:18:06;;;;;;;21.27;11.82;;;;;;;12.95;64.31;100532.25;3145450;28;20063;-65
2022/10/10 04:19:40;;;;;;;22.08;8.80;;;;;;;12.98;64.20;100526.03;3144988;28;20620;-65
2022/10/10 04:21:12;;;;;;;16.35;8.30;;;;;;;12.97;64.08;100524.34;3144329;28;20143;-65
2022/10/10 04:22:43;;;;;;;19.70;8.35;;;;;;;12.99;64.00;100527.75;3145104;28;20052;-65
2022/10/10 04:24:15;;;;;;;17.75;9.43;;;;;;;12.99;63.96;100527.75;3145325;28;20061;-66
2022/10/10 04:25:51;;;;;;;22.38;9.63;;;;;;;13.00;64.18;100531.19;3145205;28;20056;-67
2022/10/10 04:27:22;;;;;;;18.38;8.95;;;;;;;13.01;64.19;100531.13;3145414;28;20418;-65
2022/10/10 04:28:54;;;;;;;15.13;9.30;;;;;;;13.02;64.01;100532.00;3145141;28;20060;-65
2022/10/10 04:30:25;;;;;;;16.83;9.75;;;;;;;13.00;63.84;100531.19;3145048;28;20421;-65
2022/10/10 04:31:56;;;;;;;19.02;10.05;;;;;;;13.01;64.27;100527.66;3145549;28;20058;-65
2022/10/10 04:33:28;;;;;;;15.77;9.43;;;;;;;13.02;63.98;100529.38;3144046;28;20094;-65
2022/10/10 04:35:02;;;;;;;19.63;9.20;;;;;;;13.01;64.39;100538.97;3144078;28;20049;-64
2022/10/10 04:36:34;;;;;;;16.58;8.77;;;;;;;13.00;64.36;100532.03;3144122;28;20437;-65
2022/10/10 04:38:07;;;;;;;17.95;9.25;;;;;;;13.00;64.34;100536.44;3144404;28;20052;-65
2022/10/10 04:39:37;;;;;;;22.67;10.80;;;;;;;13.01;63.88;100538.13;3143839;28;20060;-65
2022/10/10 04:41:09;;;;;;;17.75;9.50;;;;;;;13.00;64.30;100539.06;3144116;28;20059;-65
2022/10/10 04:42:41;;;;;;;22.17;9.15;;;;;;;13.01;64.13;100544.19;3141249;28;20057;-66
2022/10/10 04:44:13;;;;;;;25.88;10.00;;;;;;;13.00;64.38;100546.88;3144850;28;20052;-65
2022/10/10 04:45:44;;;;;;;26.67;8.70;;;;;;;13.01;64.33;100545.97;3144796;28;20053;-65
2022/10/10 04:47:16;;;;;;;49.10;25.73;;;;;;;13.00;64.40;100547.75;3144457;28;20901;-64
2022/10/10 04:48:48;;;;;;;50.97;26.67;;;;;;;13.01;64.21;100556.44;3145234;28;20048;-64
2022/10/10 04:50:21;;;;;;;53.22;31.35;;;;;;;13.02;64.25;100552.91;3145278;28;20048;-64
2022/10/10 04:51:53;;;;;;;31.50;14.45;;;;;;;13.01;64.40;100545.97;3144453;28;20461;-66
2022/10/10 04:53:27;;;;;;;25.00;10.48;;;;;;;13.03;64.18;100552.00;3144939;28;20131;-69
2022/10/10 04:54:58;;;;;;;22.85;10.32;;;;;;;13.01;64.49;100552.03;3145190;28;20056;-69
2022/10/10 04:56:29;;;;;;;20.75;9.98;;;;;;;13.03;64.49;100557.22;3144447;28;20055;-70
2022/10/10 04:58:01;;;;;;;22.25;9.65;;;;;;;13.00;64.66;100554.72;3144892;28;20052;-70
2022/10/10 04:59:33;;;;;;;28.52;9.60;;;;;;;12.94;64.94;100555.84;3145262;28;20053;-68
2022/10/10 05:01:05;;;;;;;25.05;9.63;;;;;;;12.92;64.94;100561.13;3144964;28;20469;-67
2022/10/10 05:02:37;;;;;;;22.63;10.82;;;;;;;12.90;64.98;100562.97;3144985;28;20441;-68
2022/10/10 05:04:09;;;;;;;22.08;11.38;;;;;;;12.88;64.84;100558.72;3145090;28;20080;-67
2022/10/10 05:05:43;;;;;;;22.80;9.93;;;;;;;12.88;64.99;100561.34;3144528;28;20525;-68
2022/10/10 05:07:15;;;;;;;21.75;10.02;;;;;;;12.89;65.28;100563.88;3144622;28;20052;-69
2022/10/10 05:08:47;;;;;;;25.15;10.65;;;;;;;12.92;65.25;100566.34;3139341;28;20044;-70
2022/10/10 05:10:18;;;;;;;24.88;11.13;;;;;;;12.93;64.97;100573.31;3145039;28;20532;-69
2022/10/10 05:11:50;;;;;;;32.53;12.38;;;;;;;12.95;65.06;100574.09;3145233;28;20102;-68
2022/10/10 05:13:22;;;;;;;16.17;9.75;;;;;;;12.95;65.25;100574.09;3144952;28;20049;-71
2022/10/10 05:14:54;;;;;;;20.33;10.85;;;;;;;12.97;65.02;100574.00;3144844;28;20517;-68
2022/10/10 05:16:26;;;;;;;24.60;10.25;;;;;;;13.01;64.86;100574.72;3144643;28;20045;-65
2022/10/10 05:17:57;;;;;;;23.65;8.80;;;;;;;13.04;64.91;100582.44;3144177;28;20055;-66
2022/10/10 05:19:29;;;;;;;19.63;9.95;;;;;;;13.07;64.62;100582.31;3143797;28;20064;-67
2022/10/10 05:21:02;;;;;;;24.15;9.27;;;;;;;13.08;64.70;100576.19;3141512;28;20052;-66
2022/10/10 05:22:34;;;;;;;18.65;10.00;;;;;;;13.09;64.83;100583.94;3133873;28;20051;-69
2022/10/10 05:24:06;;;;;;;28.08;10.02;;;;;;;13.12;64.95;100583.81;3133346;28;20524;-66
2022/10/10 05:25:38;;;;;;;25.75;10.55;;;;;;;13.15;64.56;100586.28;3134179;28;20616;-65
2022/10/10 05:27:10;;;;;;;24.75;10.18;;;;;;;13.18;65.00;100587.94;3134478;28;20110;-65
2022/10/10 05:28:42;;;;;;;18.77;10.40;;;;;;;13.16;64.96;100581.91;3134040;28;20052;-65
2022/10/10 05:30:15;;;;;;;33.95;9.70;;;;;;;13.21;64.79;100588.63;3122814;28;20514;-67
2022/10/10 05:31:47;;;;;;;20.15;9.27;;;;;;;13.24;64.69;100592.03;3135065;28;20110;-64
2022/10/10 05:33:19;;;;;;;16.92;9.07;;;;;;;13.30;64.57;100594.41;3135165;28;20052;-63
2022/10/10 05:34:51;;;;;;;21.30;9.15;;;;;;;13.32;64.92;100593.44;3133729;28;20048;-63
2022/10/10 05:36:25;;;;;;;17.80;9.25;;;;;;;13.37;64.53;100595.88;3134188;28;20595;-63
2022/10/10 05:37:57;;;;;;;17.15;9.57;;;;;;;13.40;64.85;100590.50;3133599;28;20556;-63
2022/10/10 05:39:29;;;;;;;24.75;9.93;;;;;;;13.43;64.39;100599.06;3133477;28;20048;-63
2022/10/10 05:41:01;;;;;;;180.07;84.50;;;;;;;13.48;64.60;100600.59;3135407;28;20053;-67
2022/10/10 05:42:33;;;;;;;194.52;101.95;;;;;;;13.51;64.41;100603.94;3134612;28;20051;-69
2022/10/10 05:44:05;;;;;;;61.38;27.42;;;;;;;13.53;64.13;100607.34;3135178;28;20056;-67
2022/10/10 05:45:37;;;;;;;39.25;19.65;;;;;;;13.55;64.29;100607.28;3133889;28;20048;-63
2022/10/10 05:47:09;;;;;;;23.10;10.55;;;;;;;13.57;64.28;100611.50;3134702;28;20060;-62
2022/10/10 05:48:42;;;;;;;23.98;10.32;;;;;;;13.63;64.07;100615.63;3134721;28;20048;-63
2022/10/10 05:50:28;;;;;;;28.70;10.45;;;;;;;13.61;63.85;100602.63;3133990;28;20556;-62
2022/10/10 05:52:01;;;;;;;22.98;10.63;;;;;;;13.68;63.82;100611.03;3134368;28;20122;-62
2022/10/10 05:53:33;;;;;;;22.38;9.95;;;;;;;13.73;63.99;100611.69;3134985;28;20143;-62
2022/10/10 05:55:06;;;;;;;27.77;9.93;;;;;;;13.76;63.65;100606.31;3134437;28;20052;-64
2022/10/10 05:56:38;;;;;;;18.60;9.65;;;;;;;13.82;63.59;100606.03;3135338;28;20044;-62
2022/10/10 05:58:12;;;;;;;19.92;9.98;;;;;;;13.89;63.56;100612.66;3136263;28;20056;-63
2022/10/10 05:59:44;;;;;;;25.48;9.50;;;;;;;13.95;63.70;100613.31;3137182;28;20060;-67
2022/10/10 06:01:16;;;;;;;17.58;7.63;;;;;;;14.04;63.54;100623.38;3135258;28;20080;-63
2022/10/10 06:02:48;;;;;;;19.67;8.95;;;;;;;14.11;63.21;100630.03;3136918;28;20048;-63
2022/10/10 06:04:20;;;;;;;19.33;8.35;;;;;;;14.17;62.87;100629.75;3137288;28;20052;-64
2022/10/10 06:05:52;;;;;;;22.27;8.60;;;;;;;14.26;62.90;100628.47;3136557;28;20105;-63
2022/10/10 06:07:26;;;;;;;17.15;9.27;;;;;;;14.35;62.86;100628.03;3136816;28;20538;-63
2022/10/10 06:08:59;;;;;;;21.00;8.63;;;;;;;14.43;62.78;100636.34;3136799;28;20849;-63
2022/10/10 06:10:33;;;;;;;23.80;7.97;;;;;;;14.47;62.47;100637.91;3136723;28;20055;-62
2022/10/10 06:12:05;;;;;;;20.83;8.88;;;;;;;14.56;62.02;100631.41;3138047;28;20048;-64
2022/10/10 06:13:38;;;;;;;15.27;8.15;;;;;;;14.67;61.97;100631.75;3136790;28;20866;-64
2022/10/10 06:15:11;;;;;;;23.25;8.85;;;;;;;14.78;61.89;100631.22;3137094;28;20055;-64
2022/10/10 06:16:44;;;;;;;31.48;10.27;;;;;;;14.91;61.71;100627.06;3136854;28;20061;-64
2022/10/10 06:18:17;;;;;;;;;;;;;;;15.02;61.55;100629.13;3137834;28;20057;-65
2022/10/10 06:19:49;;;;;;;24.50;8.35;;;;;;;15.18;60.88;100622.19;3136866;28;19978;-64
2022/10/10 06:21:21;;;;;;;16.77;8.45;;;;;;;15.33;61.06;100627.59;3136991;28;20044;-65
2022/10/10 06:22:55;;;;;;;21.05;8.45;;;;;;;15.50;60.97;100624.06;3137282;28;20052;-65
2022/10/10 06:24:27;;;;;;;31.15;8.85;;;;;;;15.69;60.60;100628.31;3137404;28;20060;-64
2022/10/10 06:25:58;;;;;;;20.95;8.70;;;;;;;15.87;60.24;100623.84;3136610;28;20048;-65
2022/10/10 06:27:30;;;;;;;27.38;9.85;;;;;;;16.09;59.64;100620.03;3136991;28;20581;-65
2022/10/10 06:29:01;;;;;;;31.80;9.68;;;;;;;16.28;59.08;100625.97;3136579;28;20333;-65
2022/10/10 06:30:34;;;;;;;21.90;9.98;;;;;;;16.47;58.89;100628.41;3137597;28;20536;-66
2022/10/10 06:32:05;;;;;;;27.63;11.50;;;;;;;16.67;58.28;100629.91;3137081;28;20060;-67
2022/10/10 06:33:39;;;;;;;44.72;11.00;;;;;;;16.90;57.87;100630.41;3136313;28;20673;-64
2022/10/10 06:35:11;;;;;;;29.58;9.10;;;;;;;17.11;57.18;100629.16;3136471;28;20048;-63
2022/10/10 06:37:24;;;;;;;25.35;9.95;;;;;;;17.37;56.21;100624.97;3136164;28;20102;-62
2022/10/10 06:38:57;;;;;;;26.73;11.07;;;;;;;17.61;55.71;100627.88;3136126;28;20584;-64
2022/10/10 06:40:29;;;;;;;;;;;;;;;17.71;54.83;100625.53;3136829;28;20583;-62
2022/10/10 06:42:01;;;;;;;35.05;10.27;;;;;;;17.90;54.81;100623.50;3131514;28;20418;-63
2022/10/10 06:43:33;;;;;;;41.40;11.30;;;;;;;18.09;54.20;100622.31;3125714;28;20493;-63
2022/10/10 06:45:07;;;;;;;24.92;9.55;;;;;;;18.27;53.34;100631.69;3136018;28;20118;-63
2022/10/10 06:46:39;;;;;;;23.00;8.82;;;;;;;18.38;52.68;100626.56;3136181;28;20056;-63
2022/10/10 06:48:13;;;;;;;33.58;10.88;;;;;;;18.57;52.29;100622.75;3136350;28;20059;-63
2022/10/10 06:49:45;;;;;;;35.42;11.45;;;;;;;18.75;51.85;100631.25;3135118;28;20155;-65
2022/10/10 06:51:17;;;;;;;46.45;11.57;;;;;;;18.96;51.19;100634.28;3135841;28;20079;-64
2022/10/10 06:52:49;;;;;;;23.23;11.45;;;;;;;19.12;50.88;100634.94;3135725;28;20633;-63
2022/10/10 06:54:23;;;;;;;40.28;11.40;;;;;;;19.32;50.25;100626.50;3136479;28;20155;-63
2022/10/10 06:55:55;;;;;;;28.70;10.27;;;;;;;19.47;49.71;100629.91;3137327;28;20508;-65
2022/10/10 06:57:28;;;;;;;30.42;11.82;;;;;;;19.63;49.45;100634.94;3137129;28;20084;-66
2022/10/10 06:59:00;;;;;;;32.38;11.60;;;;;;;19.82;48.81;100631.03;3136009;28;20143;-66
2022/10/10 07:00:32;;;;;;;24.52;11.00;;;;;;;20.02;48.70;100624.34;3136206;28;20125;-65
2022/10/10 07:02:04;;;;;;;23.08;11.00;;;;;;;20.18;48.22;100631.09;3134330;28;20052;-66
2022/10/10 07:03:36;;;;;;;27.65;12.02;;;;;;;20.42;47.92;100638.19;3136449;28;20048;-66
2022/10/10 07:05:10;;;;;;;25.80;11.73;;;;;;;20.65;46.95;100633.91;3136978;28;20511;-66
2022/10/10 07:06:42;;;;;;;26.58;12.25;;;;;;;20.80;46.57;100630.09;3136027;28;20147;-68
2022/10/10 07:08:14;;;;;;;32.60;11.75;;;;;;;20.96;45.93;100634.25;3135928;28;20125;-64
2022/10/10 07:09:48;;;;;;;29.20;11.57;;;;;;;21.10;45.56;100632.22;3135403;28;20395;-65